createdAt,value
2023-05-23T00:01:58.713Z,19.90
2023-05-23T00:04:27.320Z,19.90
2023-05-23T00:06:54.441Z,19.90
2023-05-23T00:09:21.523Z,19.80
2023-05-23T00:11:48.545Z,19.80
2023-05-23T00:14:16.119Z,19.80
2023-05-23T00:16:45.032Z,19.80
2023-05-23T00:19:15.316Z,19.80
2023-05-23T00:21:48.741Z,19.70
2023-05-23T00:24:18.872Z,19.70
2023-05-23T00:26:47.073Z,19.70
2023-05-23T00:29:16.890Z,19.70
2023-05-23T00:31:46.719Z,19.70
2023-05-23T00:34:18.198Z,19.70
2023-05-23T00:36:47.854Z,19.70
2023-05-23T00:39:19.784Z,19.70
2023-05-23T00:41:51.965Z,19.70
2023-05-23T00:44:21.225Z,19.70
2023-05-23T00:46:52.283Z,19.70
2023-05-23T00:49:22.556Z,19.70
2023-05-23T00:51:51.674Z,19.70
2023-05-23T00:54:24.683Z,19.70
2023-05-23T00:56:51.883Z,19.70
2023-05-23T00:59:21.276Z,19.70
2023-05-23T01:01:50.536Z,19.70
2023-05-23T01:04:18.429Z,19.70
2023-05-23T01:06:46.752Z,19.70
2023-05-23T01:09:15.900Z,19.70
2023-05-23T01:12:23.437Z,19.70
2023-05-23T01:15:12.739Z,19.70
2023-05-23T01:18:04.341Z,19.70
2023-05-23T01:20:38.478Z,19.80
2023-05-23T01:23:21.890Z,19.80
2023-05-23T01:26:04.076Z,19.90
2023-05-23T01:28:41.046Z,19.90
2023-05-23T01:31:10.981Z,20.00
2023-05-23T01:33:40.115Z,20.00
2023-05-23T01:36:09.433Z,20.00
2023-05-23T01:38:36.667Z,20.10
2023-05-23T01:41:03.670Z,20.10
2023-05-23T01:43:31.934Z,20.10
2023-05-23T01:46:00.323Z,20.20
2023-05-23T01:48:28.840Z,20.20
2023-05-23T01:50:56.830Z,20.20
2023-05-23T01:53:24.977Z,20.20
2023-05-23T01:55:52.926Z,20.20
2023-05-23T01:58:22.058Z,20.20
2023-05-23T02:00:49.208Z,20.20
2023-05-23T02:03:17.017Z,20.30
2023-05-23T02:05:44.324Z,20.30
2023-05-23T02:08:11.582Z,20.20
2023-05-23T02:10:38.550Z,20.20
2023-05-23T02:13:05.854Z,20.20
2023-05-23T02:15:33.105Z,20.20
2023-05-23T02:18:02.151Z,20.20
2023-05-23T02:20:29.277Z,20.20
2023-05-23T02:22:56.280Z,20.10
2023-05-23T02:25:23.216Z,20.10
2023-05-23T02:27:50.110Z,20.10
2023-05-23T02:30:17.405Z,20.10
2023-05-23T02:32:44.500Z,20.00
2023-05-23T02:35:12.412Z,19.90
2023-05-23T02:37:39.569Z,19.90
2023-05-23T02:40:07.961Z,19.80
2023-05-23T02:42:36.486Z,19.70
2023-05-23T02:45:03.736Z,19.60
2023-05-23T02:47:31.064Z,19.50
2023-05-23T02:49:58.059Z,19.50
2023-05-23T02:52:25.793Z,19.50
2023-05-23T02:54:53.692Z,19.40
2023-05-23T02:57:21.090Z,19.40
2023-05-23T02:59:48.301Z,19.40
2023-05-23T03:02:15.818Z,19.40
2023-05-23T03:04:42.992Z,19.40
2023-05-23T03:07:17.012Z,19.30
2023-05-23T03:09:51.788Z,19.30
2023-05-23T03:12:19.982Z,19.20
2023-05-23T03:14:47.365Z,19.10
2023-05-23T03:17:14.705Z,19.10
2023-05-23T03:19:41.890Z,19.10
2023-05-23T03:22:09.184Z,19.00
2023-05-23T03:24:39.383Z,19.00
2023-05-23T03:27:06.689Z,18.90
2023-05-23T03:29:33.790Z,18.90
2023-05-23T03:32:00.950Z,18.80
2023-05-23T03:34:28.132Z,18.70
2023-05-23T03:36:55.172Z,18.70
2023-05-23T03:39:25.771Z,18.60
2023-05-23T03:41:52.974Z,18.60
2023-05-23T03:44:20.505Z,18.60
2023-05-23T03:46:47.597Z,18.50
2023-05-23T03:49:16.130Z,18.50
2023-05-23T03:51:43.290Z,18.50
2023-05-23T03:54:14.783Z,18.40
2023-05-23T03:56:42.270Z,18.40
2023-05-23T03:59:09.672Z,18.40
2023-05-23T04:01:36.937Z,18.40
2023-05-23T04:04:05.144Z,18.40
2023-05-23T04:06:35.949Z,18.40
2023-05-23T04:09:03.556Z,18.40
2023-05-23T04:11:33.388Z,18.40
2023-05-23T04:14:02.429Z,18.40
2023-05-23T04:16:33.407Z,18.50
2023-05-23T04:19:04.888Z,18.50
2023-05-23T04:21:33.064Z,18.60
2023-05-23T04:24:11.784Z,18.70
2023-05-23T04:26:39.563Z,18.70
2023-05-23T04:29:06.721Z,18.70
2023-05-23T04:31:35.187Z,18.80
2023-05-23T04:34:02.719Z,18.80
2023-05-23T04:36:31.969Z,18.70
2023-05-23T04:38:59.187Z,18.70
2023-05-23T04:41:27.280Z,18.80
2023-05-23T04:44:06.246Z,18.70
2023-05-23T04:46:45.563Z,18.70
2023-05-23T04:49:21.475Z,18.80
2023-05-23T04:51:48.757Z,18.80
2023-05-23T04:54:27.514Z,18.80
2023-05-23T04:56:56.649Z,18.90
2023-05-23T04:59:25.764Z,18.90
2023-05-23T05:01:52.752Z,19.00
2023-05-23T05:04:20.651Z,19.10
2023-05-23T05:06:48.704Z,19.10
2023-05-23T05:09:16.242Z,19.10
2023-05-23T05:11:44.015Z,19.10
2023-05-23T05:14:11.009Z,19.10
2023-05-23T05:16:38.546Z,19.20
2023-05-23T05:19:06.255Z,19.20
2023-05-23T05:21:33.429Z,19.30
2023-05-23T05:24:00.467Z,19.30
2023-05-23T05:26:28.111Z,19.30
2023-05-23T05:28:55.485Z,19.30
2023-05-23T05:31:22.728Z,19.40
2023-05-23T05:33:49.983Z,19.50
2023-05-23T05:36:17.163Z,19.60
2023-05-23T05:38:45.902Z,19.70
2023-05-23T05:41:13.534Z,19.80
2023-05-23T05:43:46.233Z,19.80
2023-05-23T05:46:14.522Z,19.90
2023-05-23T05:48:41.548Z,19.80
2023-05-23T05:51:11.759Z,19.80
2023-05-23T05:53:40.477Z,19.70
2023-05-23T05:56:09.313Z,19.70
2023-05-23T05:58:38.313Z,19.70
2023-05-23T06:01:08.298Z,19.60
2023-05-23T06:03:35.659Z,19.60
2023-05-23T06:06:02.811Z,19.60
2023-05-23T06:08:30.308Z,19.60
2023-05-23T06:10:57.313Z,19.60
2023-05-23T06:13:26.024Z,19.50
2023-05-23T06:15:54.423Z,19.50
2023-05-23T06:18:23.940Z,19.50
2023-05-23T06:20:51.978Z,19.40
2023-05-23T06:23:21.445Z,19.30
2023-05-23T06:25:48.743Z,19.30
2023-05-23T06:28:15.790Z,19.30
2023-05-23T06:30:43.012Z,19.30
2023-05-23T06:33:10.362Z,19.40
2023-05-23T06:35:37.355Z,19.40
2023-05-23T06:38:04.324Z,19.40
2023-05-23T06:40:31.314Z,19.50
2023-05-23T06:42:59.145Z,19.50
2023-05-23T06:45:50.081Z,19.60
2023-05-23T06:48:17.152Z,19.60
2023-05-23T06:50:46.123Z,19.60
2023-05-23T06:53:14.139Z,19.60
2023-05-23T06:55:42.213Z,19.60
2023-05-23T06:58:12.520Z,19.60
2023-05-23T07:00:40.265Z,19.60
2023-05-23T07:03:15.058Z,19.60
2023-05-23T07:05:42.177Z,19.60
2023-05-23T07:08:13.292Z,19.50
2023-05-23T07:10:48.516Z,19.60
2023-05-23T07:13:41.472Z,19.70
2023-05-23T07:16:12.918Z,19.70
2023-05-23T07:18:50.981Z,19.80
2023-05-23T07:21:18.605Z,19.90
2023-05-23T07:23:47.483Z,20.10
2023-05-23T07:26:14.941Z,20.30
2023-05-23T07:28:47.924Z,20.30
2023-05-23T07:31:15.121Z,20.40
2023-05-23T07:33:44.347Z,20.50
2023-05-23T07:36:16.656Z,20.50
2023-05-23T07:38:43.747Z,20.60
2023-05-23T07:41:12.347Z,20.70
2023-05-23T07:43:41.133Z,20.70
2023-05-23T07:46:08.938Z,20.80
2023-05-23T07:48:37.015Z,20.80
2023-05-23T07:51:04.496Z,20.90
2023-05-23T07:53:31.611Z,20.90
2023-05-23T07:55:59.019Z,20.90
2023-05-23T07:58:31.095Z,20.80
2023-05-23T08:00:59.588Z,20.80
2023-05-23T08:03:45.283Z,20.90
2023-05-23T08:06:19.155Z,21.10
2023-05-23T08:08:46.297Z,21.20
2023-05-23T08:11:15.064Z,21.80
2023-05-23T08:13:46.593Z,22.40
2023-05-23T08:16:32.264Z,22.70
2023-05-23T08:19:00.148Z,22.80
2023-05-23T08:21:28.385Z,22.80
2023-05-23T08:23:55.330Z,22.90
2023-05-23T08:26:23.070Z,22.90
2023-05-23T08:28:51.638Z,22.90
2023-05-23T08:31:20.095Z,22.90
2023-05-23T08:33:47.226Z,22.90
2023-05-23T08:36:14.371Z,22.90
2023-05-23T08:38:43.646Z,22.90
2023-05-23T08:41:24.694Z,22.70
2023-05-23T08:43:57.882Z,22.40
2023-05-23T08:46:30.119Z,22.00
2023-05-23T08:49:00.488Z,21.70
2023-05-23T08:51:29.624Z,21.60
2023-05-23T08:54:01.018Z,21.50
2023-05-23T08:56:29.919Z,21.50
2023-05-23T08:58:58.424Z,21.50
2023-05-23T09:01:27.838Z,21.60
2023-05-23T09:04:00.440Z,21.80
2023-05-23T09:06:30.923Z,22.40
2023-05-23T09:08:58.851Z,23.00
2023-05-23T09:11:26.417Z,23.20
2023-05-23T09:13:53.759Z,23.30
2023-05-23T09:16:22.866Z,23.30
2023-05-23T09:18:58.879Z,23.20
2023-05-23T09:21:31.962Z,23.10
2023-05-23T09:24:07.553Z,23.00
2023-05-23T09:26:35.049Z,22.90
2023-05-23T09:29:05.875Z,23.30
2023-05-23T09:31:33.311Z,24.40
2023-05-23T09:34:00.547Z,25.10
2023-05-23T09:36:30.550Z,25.50
2023-05-23T09:38:57.734Z,25.50
2023-05-23T09:41:26.566Z,25.40
2023-05-23T09:43:55.081Z,25.40
2023-05-23T09:46:23.090Z,25.50
2023-05-23T09:48:53.960Z,25.50
2023-05-23T09:51:22.400Z,25.70
2023-05-23T09:53:50.389Z,26.50
2023-05-23T09:56:18.243Z,27.40
2023-05-23T09:58:48.260Z,27.70
2023-05-23T10:01:16.612Z,27.40
2023-05-23T10:03:50.542Z,27.00
2023-05-23T10:06:22.768Z,26.70
2023-05-23T10:09:05.140Z,26.40
2023-05-23T10:12:15.121Z,25.80
2023-05-23T10:14:47.584Z,25.30
2023-05-23T10:17:33.104Z,25.50
2023-05-23T10:20:12.459Z,26.40
2023-05-23T10:22:40.325Z,27.40
2023-05-23T10:25:09.032Z,27.70
2023-05-23T10:27:39.847Z,27.50
2023-05-23T10:30:08.858Z,27.30
2023-05-23T10:32:38.867Z,27.40
2023-05-23T10:35:30.659Z,27.70
2023-05-23T10:38:05.106Z,28.60
2023-05-23T10:40:49.442Z,29.60
2023-05-23T10:43:25.226Z,30.40
2023-05-23T10:45:53.036Z,30.70
2023-05-23T10:48:29.315Z,30.80
2023-05-23T10:51:10.741Z,30.30
2023-05-23T10:53:45.579Z,29.40
2023-05-23T10:56:23.963Z,28.70
2023-05-23T10:58:55.105Z,28.40
2023-05-23T11:01:22.852Z,28.80
2023-05-23T11:03:55.575Z,29.80
2023-05-23T11:06:33.922Z,30.70
2023-05-23T11:09:11.065Z,31.60
2023-05-23T11:12:07.960Z,31.90
2023-05-23T11:14:38.350Z,31.30
2023-05-23T11:17:18.743Z,31.30
2023-05-23T11:20:07.767Z,31.00
2023-05-23T11:22:35.894Z,30.40
2023-05-23T11:25:08.218Z,30.30
2023-05-23T11:27:38.242Z,30.80
2023-05-23T11:30:09.518Z,31.70
2023-05-23T11:32:37.244Z,32.80
2023-05-23T11:35:09.380Z,33.80
2023-05-23T11:37:37.975Z,33.70
2023-05-23T11:40:28.202Z,33.50
2023-05-23T11:42:56.335Z,33.50
2023-05-23T11:45:24.512Z,33.50
2023-05-23T11:47:52.092Z,33.50
2023-05-23T11:50:24.435Z,33.30
2023-05-23T11:52:52.141Z,32.90
2023-05-23T11:55:23.429Z,32.90
2023-05-23T11:57:51.717Z,33.30
2023-05-23T12:00:19.521Z,34.00
2023-05-23T12:02:49.809Z,34.70
2023-05-23T12:05:17.331Z,34.80
2023-05-23T12:07:45.918Z,34.90
2023-05-23T12:10:14.255Z,35.20
2023-05-23T12:12:42.714Z,35.60
2023-05-23T12:15:11.654Z,36.10
2023-05-23T12:17:47.951Z,36.50
2023-05-23T12:20:15.228Z,37.00
2023-05-23T12:22:43.030Z,37.20
2023-05-23T12:25:13.236Z,37.30
2023-05-23T12:27:43.968Z,37.20
2023-05-23T12:30:16.503Z,37.40
2023-05-23T12:32:47.014Z,37.50
2023-05-23T12:35:16.024Z,37.70
2023-05-23T12:37:48.705Z,37.90
2023-05-23T12:40:15.932Z,37.40
2023-05-23T12:42:56.115Z,37.10
2023-05-23T12:45:25.375Z,37.20
2023-05-23T12:47:54.226Z,37.60
2023-05-23T12:50:21.829Z,38.00
2023-05-23T12:52:48.982Z,38.10
2023-05-23T12:55:16.209Z,38.20
2023-05-23T12:57:43.254Z,38.00
2023-05-23T13:00:11.735Z,37.20
2023-05-23T13:02:39.918Z,36.20
2023-05-23T13:05:07.470Z,36.00
2023-05-23T13:07:34.783Z,36.10
2023-05-23T13:10:02.684Z,36.40
2023-05-23T13:12:30.784Z,36.70
2023-05-23T13:14:58.798Z,36.70
2023-05-23T13:17:25.811Z,36.20
2023-05-23T13:19:52.996Z,35.50
2023-05-23T13:22:20.020Z,35.50
2023-05-23T13:24:47.018Z,35.50
2023-05-23T13:27:14.037Z,35.60
2023-05-23T13:29:41.034Z,35.70
2023-05-23T13:32:09.011Z,35.40
2023-05-23T13:34:37.565Z,35.00
2023-05-23T13:37:05.678Z,35.00
2023-05-23T13:39:32.838Z,35.40
2023-05-23T13:41:59.988Z,35.80
2023-05-23T13:44:27.001Z,36.10
2023-05-23T13:46:55.020Z,36.50
2023-05-23T13:49:21.954Z,36.80
2023-05-23T13:51:49.996Z,36.40
2023-05-23T13:54:16.990Z,36.20
2023-05-23T13:56:44.303Z,35.60
2023-05-23T13:59:13.156Z,34.80
2023-05-23T14:01:40.098Z,34.00
2023-05-23T14:04:07.410Z,33.60
2023-05-23T14:06:34.409Z,34.00
2023-05-23T14:09:01.529Z,34.50
2023-05-23T14:11:29.226Z,35.00
2023-05-23T14:13:58.712Z,35.10
2023-05-23T14:16:26.292Z,35.30
2023-05-23T14:18:53.404Z,35.50
2023-05-23T14:21:21.502Z,35.60
2023-05-23T14:23:48.690Z,35.60
2023-05-23T14:26:16.044Z,35.70
2023-05-23T14:28:43.037Z,35.70
2023-05-23T14:31:10.065Z,35.50
2023-05-23T14:33:37.205Z,35.20
2023-05-23T14:36:04.551Z,35.20
2023-05-23T14:38:31.487Z,35.20
2023-05-23T14:40:59.947Z,35.00
2023-05-23T14:43:27.078Z,35.00
2023-05-23T14:45:54.347Z,35.20
2023-05-23T14:48:21.369Z,35.10
2023-05-23T14:50:48.441Z,35.00
2023-05-23T14:53:15.978Z,35.10
2023-05-23T14:55:43.256Z,35.30
2023-05-23T14:58:10.384Z,35.30
2023-05-23T15:00:37.345Z,35.00
2023-05-23T15:03:04.848Z,34.80
2023-05-23T15:05:32.016Z,34.60
2023-05-23T15:07:59.002Z,34.50
2023-05-23T15:10:26.184Z,34.40
2023-05-23T15:12:53.130Z,34.30
2023-05-23T15:15:23.211Z,34.00
2023-05-23T15:17:51.041Z,33.90
2023-05-23T15:20:18.207Z,33.70
2023-05-23T15:22:46.207Z,33.30
2023-05-23T15:25:14.085Z,32.60
2023-05-23T15:27:41.406Z,31.60
2023-05-23T15:30:09.042Z,30.70
2023-05-23T15:32:36.006Z,30.00
2023-05-23T15:35:02.987Z,29.40
2023-05-23T15:37:29.955Z,28.90
2023-05-23T15:39:56.886Z,28.30
2023-05-23T15:42:23.857Z,27.90
2023-05-23T15:44:51.358Z,27.60
2023-05-23T15:47:20.759Z,27.20
2023-05-23T15:49:47.958Z,27.00
2023-05-23T15:52:14.929Z,26.90
2023-05-23T15:54:41.892Z,26.70
2023-05-23T15:57:08.971Z,26.50
2023-05-23T15:59:37.569Z,26.50
2023-05-23T16:02:06.400Z,26.40
2023-05-23T16:04:36.061Z,26.30
2023-05-23T16:07:04.006Z,26.30
2023-05-23T16:09:31.293Z,26.20
2023-05-23T16:11:58.820Z,26.00
2023-05-23T16:14:25.767Z,25.90
2023-05-23T16:16:52.823Z,25.80
2023-05-23T16:19:19.935Z,25.50
2023-05-23T16:21:47.015Z,25.30
2023-05-23T16:24:14.241Z,25.20
2023-05-23T16:26:43.237Z,25.00
2023-05-23T16:29:12.272Z,24.80
2023-05-23T16:31:39.531Z,24.70
2023-05-23T16:34:06.563Z,24.50
2023-05-23T16:36:33.533Z,24.50
2023-05-23T16:39:00.504Z,24.30
2023-05-23T16:41:28.205Z,24.30
2023-05-23T16:43:56.131Z,24.20
2023-05-23T16:46:26.333Z,24.10
2023-05-23T16:48:54.678Z,24.00
2023-05-23T16:51:21.954Z,23.90
2023-05-23T16:53:49.396Z,23.80
2023-05-23T16:56:18.304Z,23.80
2023-05-23T16:58:45.291Z,23.70
2023-05-23T17:01:12.457Z,23.50
2023-05-23T17:03:41.680Z,23.40
2023-05-23T17:06:08.814Z,23.30
2023-05-23T17:08:35.812Z,23.20
2023-05-23T17:11:02.904Z,23.20
2023-05-23T17:13:29.825Z,23.20
2023-05-23T17:15:56.821Z,23.10
2023-05-23T17:18:23.832Z,23.10
2023-05-23T17:20:50.779Z,23.00
2023-05-23T17:23:19.202Z,22.90
2023-05-23T17:25:46.498Z,22.90
2023-05-23T17:28:13.456Z,22.80
2023-05-23T17:30:40.396Z,22.80
2023-05-23T17:33:08.527Z,22.70
2023-05-23T17:35:35.574Z,22.70
2023-05-23T17:38:02.587Z,22.60
2023-05-23T17:40:29.798Z,22.50
2023-05-23T17:42:56.881Z,22.40
2023-05-23T17:45:23.839Z,22.30
2023-05-23T17:47:50.934Z,22.30
2023-05-23T17:50:21.002Z,22.30
2023-05-23T17:52:48.039Z,22.20
2023-05-23T17:55:15.024Z,22.20
2023-05-23T17:57:42.027Z,22.10
2023-05-23T18:00:10.019Z,22.00
2023-05-23T18:02:39.889Z,21.90
2023-05-23T18:05:07.648Z,21.90
2023-05-23T18:07:34.989Z,21.80
2023-05-23T18:10:03.140Z,21.70
2023-05-23T18:12:30.372Z,21.60
2023-05-23T18:14:57.331Z,21.50
2023-05-23T18:17:24.998Z,21.50
2023-05-23T18:19:52.033Z,21.40
2023-05-23T18:22:20.370Z,21.40
2023-05-23T18:24:47.412Z,21.40
2023-05-23T18:27:14.838Z,21.30
2023-05-23T18:29:41.768Z,21.30
2023-05-23T18:32:08.876Z,21.40
2023-05-23T18:34:36.014Z,21.20
2023-05-23T18:37:03.210Z,21.20
2023-05-23T18:39:58.163Z,21.10
2023-05-23T18:42:25.058Z,21.00
2023-05-23T18:44:51.960Z,20.90
2023-05-23T18:47:18.903Z,20.90
2023-05-23T18:49:46.415Z,20.80
2023-05-23T18:52:13.612Z,20.70
2023-05-23T18:54:41.689Z,20.60
2023-05-23T18:57:08.968Z,20.60
2023-05-23T18:59:35.967Z,20.50
2023-05-23T19:02:03.612Z,20.50
2023-05-23T19:04:30.569Z,20.50
2023-05-23T19:06:57.507Z,20.40
2023-05-23T19:09:24.564Z,20.40
2023-05-23T19:11:51.518Z,20.50
2023-05-23T19:14:19.051Z,20.50
2023-05-23T19:16:46.451Z,20.50
2023-05-23T19:19:14.559Z,20.50
2023-05-23T19:21:41.732Z,20.60
2023-05-23T19:24:09.302Z,20.50
2023-05-23T19:26:37.329Z,20.50
2023-05-23T19:29:04.514Z,20.50
2023-05-23T19:31:31.914Z,20.40
2023-05-23T19:33:58.959Z,20.50
2023-05-23T19:36:29.102Z,20.40
2023-05-23T19:38:56.220Z,20.40
2023-05-23T19:41:23.219Z,20.30
2023-05-23T19:43:50.690Z,20.30
2023-05-23T19:46:17.683Z,20.30
2023-05-23T19:48:44.917Z,20.30
2023-05-23T19:51:11.854Z,20.30
2023-05-23T19:53:38.971Z,20.20
2023-05-23T19:56:06.693Z,20.20
2023-05-23T19:58:36.175Z,20.10
2023-05-23T20:01:03.254Z,20.00
2023-05-23T20:03:30.320Z,20.00
2023-05-23T20:05:57.815Z,19.90
2023-05-23T20:08:24.865Z,19.90
2023-05-23T20:10:51.827Z,19.90
2023-05-23T20:13:19.024Z,19.80
2023-05-23T20:15:46.510Z,19.70
2023-05-23T20:18:13.955Z,19.60
2023-05-23T20:20:44.045Z,19.60
2023-05-23T20:23:11.083Z,19.50
2023-05-23T20:25:38.106Z,19.40
2023-05-23T20:28:05.287Z,19.40
2023-05-23T20:30:32.262Z,19.30
2023-05-23T20:32:59.272Z,19.20
2023-05-23T20:35:26.359Z,19.10
2023-05-23T20:37:56.202Z,19.00
2023-05-23T20:40:23.304Z,19.00
2023-05-23T20:42:50.243Z,18.90
2023-05-23T20:45:17.401Z,18.80
2023-05-23T20:47:44.513Z,18.80
2023-05-23T20:50:12.788Z,18.70
2023-05-23T20:52:42.800Z,18.60
2023-05-23T20:55:10.863Z,18.60
2023-05-23T20:57:38.249Z,18.50
2023-05-23T21:00:13.024Z,18.50
2023-05-23T21:02:40.916Z,18.40
2023-05-23T21:05:09.768Z,18.40
2023-05-23T21:07:37.316Z,18.30
2023-05-23T21:10:04.644Z,18.30
2023-05-23T21:12:31.746Z,18.20
2023-05-23T21:14:58.813Z,18.30
2023-05-23T21:17:26.303Z,18.30
2023-05-23T21:19:53.378Z,18.30
2023-05-23T21:22:20.400Z,18.30
2023-05-23T21:24:47.372Z,18.30
2023-05-23T21:27:14.456Z,18.20
2023-05-23T21:29:41.957Z,18.20
2023-05-23T21:32:08.982Z,18.10
2023-05-23T21:34:36.130Z,18.10
2023-05-23T21:37:03.182Z,18.20
2023-05-23T21:39:42.958Z,18.10
2023-05-23T21:42:17.249Z,18.20
2023-05-23T21:44:44.339Z,18.10
2023-05-23T21:47:11.405Z,18.10
2023-05-23T21:49:40.297Z,18.00
2023-05-23T21:52:07.561Z,18.00
2023-05-23T21:54:34.631Z,18.00
2023-05-23T21:57:01.812Z,17.90
2023-05-23T21:59:28.773Z,17.80
2023-05-23T22:01:56.116Z,17.80
2023-05-23T22:04:28.563Z,17.70
2023-05-23T22:06:55.515Z,17.70
2023-05-23T22:09:22.506Z,17.70
2023-05-23T22:11:49.461Z,17.60
2023-05-23T22:14:16.426Z,17.60
2023-05-23T22:16:43.582Z,17.60
2023-05-23T22:19:12.626Z,17.70
2023-05-23T22:21:39.717Z,17.70
2023-05-23T22:24:06.913Z,17.70
2023-05-23T22:26:33.914Z,17.80
2023-05-23T22:29:00.957Z,17.70
2023-05-23T22:31:28.960Z,17.80
2023-05-23T22:33:56.242Z,17.70
2023-05-23T22:36:23.470Z,17.70
2023-05-23T22:38:50.558Z,17.70
2023-05-23T22:41:17.620Z,17.70
2023-05-23T22:43:44.664Z,17.70
2023-05-23T22:46:11.711Z,17.70
2023-05-23T22:48:39.141Z,17.60
2023-05-23T22:51:08.025Z,17.70
2023-05-23T22:53:35.058Z,17.60
2023-05-23T22:56:02.803Z,17.60
2023-05-23T22:58:29.795Z,17.60
2023-05-23T23:00:56.907Z,17.50
2023-05-23T23:03:23.903Z,17.40
2023-05-23T23:05:50.933Z,17.40
2023-05-23T23:08:19.405Z,17.40
2023-05-23T23:10:46.788Z,17.40
2023-05-23T23:13:14.224Z,17.40
2023-05-23T23:15:42.989Z,17.40
2023-05-23T23:18:13.472Z,17.30
2023-05-23T23:20:41.302Z,17.20
2023-05-23T23:23:08.814Z,17.20
2023-05-23T23:25:36.539Z,17.10
2023-05-23T23:28:03.941Z,17.10
2023-05-23T23:30:30.901Z,17.00
2023-05-23T23:32:58.167Z,17.00
2023-05-23T23:35:25.169Z,16.90
2023-05-23T23:37:52.130Z,16.90
2023-05-23T23:40:19.119Z,16.90
2023-05-23T23:42:46.156Z,16.80
2023-05-23T23:45:13.079Z,16.70
2023-05-23T23:47:40.109Z,16.70
2023-05-23T23:50:07.890Z,16.60
2023-05-23T23:52:37.284Z,16.60
2023-05-23T23:55:04.749Z,16.50
2023-05-23T23:57:31.890Z,16.40
2023-05-23T23:59:58.996Z,16.40
